createdAt,value
2022-11-27T00:00:31.490Z,16.77
2022-11-27T00:02:59.970Z,14.63
2022-11-27T00:05:28.158Z,14.90
2022-11-27T00:07:58.542Z,15.87
2022-11-27T00:10:30.022Z,13.83
2022-11-27T00:13:01.575Z,13.67
2022-11-27T00:15:30.026Z,14.30
2022-11-27T00:17:58.611Z,18.40
2022-11-27T00:20:30.348Z,14.43
2022-11-27T00:22:59.835Z,9.93
2022-11-27T00:25:28.368Z,8.97
2022-11-27T00:27:59.971Z,14.40
2022-11-27T00:30:29.392Z,11.73
2022-11-27T00:32:58.119Z,12.37
2022-11-27T00:35:26.259Z,13.37
2022-11-27T00:37:54.511Z,13.80
2022-11-27T00:40:24.311Z,10.73
2022-11-27T00:42:59.548Z,16.80
2022-11-27T00:45:40.162Z,16.20
2022-11-27T00:48:14.620Z,11.53
2022-11-27T00:50:54.666Z,14.07
2022-11-27T00:53:22.632Z,15.20
2022-11-27T00:56:03.341Z,14.30
2022-11-27T00:58:47.863Z,13.80
2022-11-27T01:01:34.113Z,13.33
2022-11-27T01:04:05.465Z,14.60
2022-11-27T01:06:36.614Z,15.80
2022-11-27T01:09:18.301Z,16.57
2022-11-27T01:11:53.758Z,16.27
2022-11-27T01:14:25.605Z,14.33
2022-11-27T01:16:59.291Z,14.33
2022-11-27T01:19:39.196Z,16.53
2022-11-27T01:22:19.369Z,16.97
2022-11-27T01:24:47.226Z,18.57
2022-11-27T01:27:16.194Z,12.43
2022-11-27T01:29:43.798Z,20.67
2022-11-27T01:32:11.517Z,12.60
2022-11-27T01:34:39.458Z,15.50
2022-11-27T01:37:07.264Z,15.07
2022-11-27T01:39:34.869Z,11.50
2022-11-27T01:42:02.490Z,17.67
2022-11-27T01:44:55.814Z,22.43
2022-11-27T01:47:30.451Z,16.90
2022-11-27T01:50:04.849Z,14.47
2022-11-27T01:52:35.316Z,15.10
2022-11-27T01:55:06.012Z,13.77
2022-11-27T01:57:36.443Z,16.20
2022-11-27T02:00:07.911Z,18.43
2022-11-27T02:02:35.575Z,13.77
2022-11-27T02:05:03.356Z,14.73
2022-11-27T02:07:31.095Z,15.57
2022-11-27T02:09:58.771Z,14.43
2022-11-27T02:12:27.596Z,16.40
2022-11-27T02:15:01.035Z,15.40
2022-11-27T02:17:37.526Z,16.20
2022-11-27T02:20:16.276Z,14.97
2022-11-27T02:22:58.039Z,17.60
2022-11-27T02:25:32.633Z,16.57
2022-11-27T02:28:11.178Z,17.40
2022-11-27T02:30:44.844Z,17.07
2022-11-27T02:33:13.743Z,12.77
2022-11-27T02:35:47.154Z,17.43
2022-11-27T02:38:17.902Z,22.47
2022-11-27T02:40:50.555Z,20.97
2022-11-27T02:43:21.880Z,21.93
2022-11-27T02:45:52.387Z,20.83
2022-11-27T02:48:22.540Z,21.10
2022-11-27T02:50:51.453Z,25.27
2022-11-27T02:53:22.158Z,24.00
2022-11-27T02:55:50.246Z,29.03
2022-11-27T02:58:21.749Z,23.23
2022-11-27T03:00:51.613Z,27.63
2022-11-27T03:03:22.760Z,22.53
2022-11-27T03:05:52.196Z,26.10
2022-11-27T03:08:23.768Z,23.23
2022-11-27T03:10:55.322Z,26.97
2022-11-27T03:13:22.967Z,23.93
2022-11-27T03:15:58.387Z,21.20
2022-11-27T03:18:32.246Z,29.47
2022-11-27T03:21:04.492Z,22.77
2022-11-27T03:23:32.097Z,25.17
2022-11-27T03:25:59.939Z,21.93
2022-11-27T03:28:29.023Z,24.87
2022-11-27T03:30:58.006Z,22.80
2022-11-27T03:33:25.768Z,22.57
2022-11-27T03:35:53.618Z,27.40
2022-11-27T03:38:21.420Z,24.30
2022-11-27T03:40:55.450Z,23.33
2022-11-27T03:43:25.081Z,25.20
2022-11-27T03:45:56.071Z,19.57
2022-11-27T03:48:31.377Z,25.47
2022-11-27T03:51:07.076Z,25.90
2022-11-27T03:53:43.698Z,25.70
2022-11-27T03:56:15.150Z,26.50
2022-11-27T03:58:47.285Z,26.93
2022-11-27T04:01:17.377Z,23.43
2022-11-27T04:03:46.448Z,26.23
2022-11-27T04:06:14.071Z,23.17
2022-11-27T04:08:41.894Z,23.87
2022-11-27T04:11:09.568Z,23.97
2022-11-27T04:13:37.767Z,24.10
2022-11-27T04:16:06.081Z,27.63
2022-11-27T04:18:33.766Z,27.13
2022-11-27T04:21:02.659Z,25.53
2022-11-27T04:23:30.252Z,27.00
2022-11-27T04:25:57.846Z,26.93
2022-11-27T04:28:25.425Z,33.20
2022-11-27T04:30:54.734Z,39.00
2022-11-27T04:33:22.406Z,28.93
2022-11-27T04:35:50.040Z,28.43
2022-11-27T04:38:19.140Z,30.93
2022-11-27T04:40:46.758Z,25.87
2022-11-27T04:43:14.428Z,28.40
2022-11-27T04:45:43.720Z,22.70
2022-11-27T04:48:11.421Z,28.70
2022-11-27T04:50:39.218Z,25.07
2022-11-27T04:53:06.847Z,21.77
2022-11-27T04:55:35.754Z,19.57
2022-11-27T04:58:03.362Z,23.20
2022-11-27T05:00:30.961Z,23.23
2022-11-27T05:02:58.642Z,24.73
2022-11-27T05:05:26.222Z,21.73
2022-11-27T05:07:53.825Z,22.07
2022-11-27T05:10:21.430Z,17.87
2022-11-27T05:12:50.371Z,16.83
2022-11-27T05:15:18.150Z,18.30
2022-11-27T05:17:45.793Z,18.10
2022-11-27T05:20:13.456Z,21.33
2022-11-27T05:22:41.048Z,21.17
2022-11-27T05:25:09.211Z,19.63
2022-11-27T05:27:36.800Z,16.80
2022-11-27T05:30:07.230Z,20.40
2022-11-27T05:32:34.812Z,17.73
2022-11-27T05:35:02.353Z,18.00
2022-11-27T05:37:30.033Z,20.47
2022-11-27T05:39:57.644Z,22.03
2022-11-27T05:42:25.203Z,20.87
2022-11-27T05:44:57.850Z,21.53
2022-11-27T05:47:27.350Z,19.10
2022-11-27T05:49:54.936Z,19.83
2022-11-27T05:52:22.525Z,21.50
2022-11-27T05:54:50.120Z,22.17
2022-11-27T05:57:17.700Z,18.43
2022-11-27T05:59:45.338Z,16.43
2022-11-27T06:02:18.460Z,24.83
2022-11-27T06:04:49.753Z,21.07
2022-11-27T06:07:17.488Z,23.10
2022-11-27T06:09:45.270Z,23.40
2022-11-27T06:12:12.825Z,24.10
2022-11-27T06:14:40.659Z,22.00
2022-11-27T06:17:08.374Z,26.70
2022-11-27T06:19:36.074Z,27.50
2022-11-27T06:22:04.988Z,29.67
2022-11-27T06:24:32.542Z,25.33
2022-11-27T06:27:00.147Z,25.53
2022-11-27T06:29:27.777Z,32.33
2022-11-27T06:31:55.383Z,27.73
2022-11-27T06:34:23.066Z,31.13
2022-11-27T06:36:51.398Z,30.40
2022-11-27T06:39:20.366Z,28.80
2022-11-27T06:41:47.974Z,34.57
2022-11-27T06:44:15.544Z,36.50
2022-11-27T06:46:43.321Z,30.07
2022-11-27T06:49:10.991Z,29.87
2022-11-27T06:51:38.571Z,35.37
2022-11-27T06:54:06.351Z,31.10
2022-11-27T06:56:35.464Z,33.03
2022-11-27T06:59:03.231Z,31.97
2022-11-27T07:01:32.170Z,34.30
2022-11-27T07:03:59.883Z,44.20
2022-11-27T07:06:28.228Z,63.80
2022-11-27T07:08:56.410Z,67.07
2022-11-27T07:11:25.496Z,35.90
2022-11-27T07:13:57.171Z,36.57
2022-11-27T07:16:25.390Z,46.53
2022-11-27T07:18:54.439Z,54.53
2022-11-27T07:21:22.906Z,39.00
2022-11-27T07:23:50.524Z,39.50
2022-11-27T07:26:19.571Z,34.17
2022-11-27T07:28:47.632Z,52.93
2022-11-27T07:31:19.610Z,48.57
2022-11-27T07:33:47.339Z,44.80
2022-11-27T07:36:16.836Z,44.80
2022-11-27T07:38:44.885Z,36.93
2022-11-27T07:41:13.135Z,33.57
2022-11-27T07:43:41.108Z,35.53
2022-11-27T07:46:11.271Z,35.17
2022-11-27T07:48:40.250Z,27.60
2022-11-27T07:51:08.521Z,34.07
2022-11-27T07:53:37.325Z,30.80
2022-11-27T07:56:05.513Z,28.77
2022-11-27T07:58:33.225Z,29.53
2022-11-27T08:01:00.961Z,27.47
2022-11-27T08:03:28.690Z,29.37
2022-11-27T08:05:57.705Z,26.23
2022-11-27T08:08:25.333Z,22.30
2022-11-27T08:10:52.973Z,25.10
2022-11-27T08:13:20.538Z,23.43
2022-11-27T08:15:48.384Z,20.93
2022-11-27T08:18:16.014Z,30.03
2022-11-27T08:20:43.621Z,22.77
2022-11-27T08:23:12.594Z,25.37
2022-11-27T08:25:40.193Z,21.47
2022-11-27T08:28:07.774Z,18.57
2022-11-27T08:30:35.443Z,17.50
2022-11-27T08:33:03.078Z,16.73
2022-11-27T08:35:30.678Z,14.60
2022-11-27T08:37:58.606Z,14.53
2022-11-27T08:40:27.583Z,14.20
2022-11-27T08:42:55.167Z,16.70
2022-11-27T08:45:22.835Z,16.90
2022-11-27T08:47:50.468Z,15.47
2022-11-27T08:50:18.639Z,16.63
2022-11-27T08:52:46.190Z,15.53
2022-11-27T08:55:13.792Z,15.27
2022-11-27T08:57:42.712Z,15.80
2022-11-27T09:00:11.761Z,16.00
2022-11-27T09:02:39.549Z,16.60
2022-11-27T09:05:07.788Z,13.70
2022-11-27T09:07:35.458Z,15.73
2022-11-27T09:10:03.040Z,12.73
2022-11-27T09:12:30.700Z,13.37
2022-11-27T09:14:59.723Z,14.97
2022-11-27T09:17:27.433Z,14.67
2022-11-27T09:19:55.026Z,14.50
2022-11-27T09:22:22.689Z,15.60
2022-11-27T09:24:50.314Z,16.90
2022-11-27T09:27:17.964Z,14.97
2022-11-27T09:29:45.527Z,12.90
2022-11-27T09:32:14.522Z,15.57
2022-11-27T09:34:42.782Z,13.83
2022-11-27T09:37:11.119Z,14.23
2022-11-27T09:39:39.041Z,14.67
2022-11-27T09:42:09.630Z,17.97
2022-11-27T09:44:42.954Z,14.17
2022-11-27T09:47:17.514Z,12.93
2022-11-27T09:49:47.178Z,13.83
2022-11-27T09:52:21.315Z,14.93
2022-11-27T09:54:54.868Z,13.67
2022-11-27T09:57:28.377Z,16.63
2022-11-27T09:59:57.261Z,15.37
2022-11-27T10:02:29.331Z,16.83
2022-11-27T10:05:13.550Z,13.80
2022-11-27T10:07:53.901Z,14.00
2022-11-27T10:10:32.281Z,13.00
2022-11-27T10:13:06.904Z,15.80
2022-11-27T10:15:39.826Z,16.30
2022-11-27T10:18:14.315Z,15.93
2022-11-27T10:20:44.893Z,18.13
2022-11-27T10:23:20.024Z,13.63
2022-11-27T10:25:50.489Z,16.97
2022-11-27T10:28:27.728Z,14.67
2022-11-27T10:30:59.337Z,13.47
2022-11-27T10:33:33.278Z,13.70
2022-11-27T10:36:02.175Z,14.90
2022-11-27T10:38:31.178Z,13.67
2022-11-27T10:41:06.465Z,16.50
2022-11-27T10:43:35.855Z,15.90
2022-11-27T10:46:06.696Z,16.63
2022-11-27T10:48:35.727Z,17.30
2022-11-27T10:51:03.495Z,17.27
2022-11-27T10:53:33.589Z,17.93
2022-11-27T10:56:37.497Z,15.53
2022-11-27T10:59:07.396Z,19.17
2022-11-27T11:01:44.478Z,18.07
2022-11-27T11:04:36.886Z,15.80
2022-11-27T11:07:04.052Z,18.73
2022-11-27T11:09:34.534Z,17.30
2022-11-27T11:12:08.309Z,15.80
2022-11-27T11:14:35.995Z,16.13
2022-11-27T11:17:16.509Z,17.77
2022-11-27T11:19:46.551Z,20.87
2022-11-27T11:22:16.203Z,25.77
2022-11-27T11:24:47.301Z,17.00
2022-11-27T11:27:16.879Z,15.47
2022-11-27T11:29:49.031Z,14.67
2022-11-27T11:32:23.354Z,15.47
2022-11-27T11:35:00.582Z,18.43
2022-11-27T11:37:30.359Z,15.37
2022-11-27T11:39:59.863Z,13.47
2022-11-27T11:42:29.460Z,15.50
2022-11-27T11:45:03.395Z,16.70
2022-11-27T11:47:31.305Z,15.30
2022-11-27T11:50:00.407Z,14.33
2022-11-27T11:52:51.495Z,16.73
2022-11-27T11:55:21.223Z,16.27
2022-11-27T11:58:10.241Z,15.07
2022-11-27T12:01:04.713Z,16.73
2022-11-27T12:03:38.547Z,18.20
2022-11-27T12:06:29.924Z,17.93
2022-11-27T12:09:04.939Z,17.10
2022-11-27T12:11:37.933Z,19.67
2022-11-27T12:14:17.352Z,19.57
2022-11-27T12:16:53.407Z,23.90
2022-11-27T12:19:55.814Z,25.20
2022-11-27T12:22:38.097Z,25.77
2022-11-27T12:25:18.046Z,24.13
2022-11-27T12:27:58.148Z,23.10
2022-11-27T12:30:28.160Z,21.57
2022-11-27T12:33:15.382Z,23.67
2022-11-27T12:35:44.308Z,24.73
2022-11-27T12:38:25.273Z,25.93
2022-11-27T12:41:13.231Z,26.00
2022-11-27T12:43:44.167Z,24.43
2022-11-27T12:46:16.004Z,25.67
2022-11-27T12:48:47.552Z,25.63
2022-11-27T12:51:20.670Z,23.63
2022-11-27T12:53:53.477Z,26.40
2022-11-27T12:56:24.590Z,24.90
2022-11-27T12:58:55.069Z,24.23
2022-11-27T13:01:26.973Z,23.63
2022-11-27T13:04:04.427Z,24.10
2022-11-27T13:06:34.365Z,24.80
2022-11-27T13:09:06.066Z,23.67
2022-11-27T13:11:34.763Z,27.80
2022-11-27T13:14:07.562Z,27.53
2022-11-27T13:16:38.412Z,25.30
2022-11-27T13:19:12.666Z,27.67
2022-11-27T13:21:41.179Z,25.93
2022-11-27T13:24:13.007Z,27.47
2022-11-27T13:26:43.822Z,24.30
2022-11-27T13:29:18.863Z,36.17
2022-11-27T13:31:48.959Z,25.73
2022-11-27T13:34:19.456Z,25.67
2022-11-27T13:36:50.460Z,30.43
2022-11-27T13:39:25.448Z,28.57
2022-11-27T13:42:01.685Z,29.03
2022-11-27T13:44:30.531Z,27.87
2022-11-27T13:47:01.448Z,33.50
2022-11-27T13:49:30.411Z,33.03
2022-11-27T13:52:09.534Z,33.47
2022-11-27T13:54:38.726Z,29.07
2022-11-27T13:57:14.741Z,28.27
2022-11-27T13:59:42.584Z,29.43
2022-11-27T14:02:10.459Z,32.20
2022-11-27T14:04:55.628Z,36.63
2022-11-27T14:07:24.639Z,30.60
2022-11-27T14:09:56.214Z,34.63
2022-11-27T14:12:26.053Z,29.73
2022-11-27T14:15:06.845Z,31.13
2022-11-27T14:17:37.680Z,27.07
2022-11-27T14:20:22.802Z,25.80
2022-11-27T14:23:11.629Z,28.97
2022-11-27T14:25:41.863Z,29.87
2022-11-27T14:28:15.362Z,31.30
2022-11-27T14:30:47.118Z,27.90
2022-11-27T14:33:20.513Z,27.33
2022-11-27T14:35:51.537Z,28.70
2022-11-27T14:38:19.752Z,25.10
2022-11-27T14:40:49.572Z,25.77
2022-11-27T14:43:18.821Z,26.37
2022-11-27T14:45:48.594Z,31.43
2022-11-27T14:48:23.661Z,32.77
2022-11-27T14:50:52.172Z,31.10
2022-11-27T14:53:20.526Z,37.37
2022-11-27T14:55:50.396Z,30.03
2022-11-27T14:58:19.832Z,32.43
2022-11-27T15:00:53.061Z,28.43
2022-11-27T15:03:21.763Z,26.50
2022-11-27T15:05:54.616Z,34.83
2022-11-27T15:08:22.440Z,40.70
2022-11-27T15:10:54.050Z,29.63
2022-11-27T15:13:24.390Z,30.20
2022-11-27T15:15:58.770Z,33.90
2022-11-27T15:18:26.813Z,38.23
2022-11-27T15:20:55.513Z,34.37
2022-11-27T15:23:25.284Z,33.93
2022-11-27T15:26:14.367Z,28.47
2022-11-27T15:28:43.590Z,29.20
2022-11-27T15:31:30.034Z,28.10
2022-11-27T15:34:00.488Z,30.60
2022-11-27T15:36:28.493Z,30.20
2022-11-27T15:39:06.793Z,25.50
2022-11-27T15:41:40.871Z,30.73
2022-11-27T15:44:11.068Z,26.63
2022-11-27T15:46:38.634Z,28.53
2022-11-27T15:49:09.797Z,26.50
2022-11-27T15:51:37.382Z,25.67
2022-11-27T15:54:05.200Z,27.17
2022-11-27T15:56:32.889Z,25.80
2022-11-27T15:59:01.881Z,26.53
2022-11-27T16:01:29.554Z,30.80
2022-11-27T16:03:57.161Z,28.50
2022-11-27T16:06:24.943Z,27.07
2022-11-27T16:08:55.438Z,24.63
2022-11-27T16:11:23.041Z,28.80
2022-11-27T16:13:50.783Z,30.77
2022-11-27T16:16:20.140Z,26.70
2022-11-27T16:18:47.914Z,26.50
2022-11-27T16:21:17.238Z,27.73
2022-11-27T16:23:45.321Z,24.63
2022-11-27T16:26:14.642Z,25.37
2022-11-27T16:28:43.065Z,25.47
2022-11-27T16:31:13.468Z,26.47
2022-11-27T16:33:43.104Z,24.47
2022-11-27T16:36:12.387Z,26.90
2022-11-27T16:38:40.492Z,28.33
2022-11-27T16:41:10.785Z,23.90
2022-11-27T16:43:40.794Z,25.97
2022-11-27T16:46:10.350Z,29.37
2022-11-27T16:48:39.531Z,26.47
2022-11-27T16:51:10.002Z,24.67
2022-11-27T16:53:39.393Z,29.27
2022-11-27T16:56:07.503Z,30.70
2022-11-27T16:58:35.876Z,25.53
2022-11-27T17:01:05.868Z,28.40
2022-11-27T17:03:33.703Z,29.00
2022-11-27T17:06:01.303Z,28.93
2022-11-27T17:08:30.249Z,30.67
2022-11-27T17:10:57.840Z,28.57
2022-11-27T17:13:25.518Z,22.67
2022-11-27T17:15:53.065Z,24.53
2022-11-27T17:18:20.646Z,27.00
2022-11-27T17:20:48.210Z,29.40
2022-11-27T17:23:15.798Z,34.73
2022-11-27T17:25:44.812Z,30.33
2022-11-27T17:28:12.400Z,25.77
2022-11-27T17:30:40.150Z,24.07
2022-11-27T17:33:07.716Z,22.90
2022-11-27T17:35:35.307Z,26.57
2022-11-27T17:38:03.005Z,24.10
2022-11-27T17:40:30.817Z,29.37
2022-11-27T17:42:59.837Z,26.93
2022-11-27T17:45:27.533Z,29.47
2022-11-27T17:47:55.705Z,23.80
2022-11-27T17:50:23.394Z,23.37
2022-11-27T17:52:53.488Z,33.30
2022-11-27T17:55:21.269Z,30.13
2022-11-27T17:57:48.996Z,29.70
2022-11-27T18:00:18.717Z,26.20
2022-11-27T18:02:46.359Z,22.50
2022-11-27T18:05:13.881Z,26.50
2022-11-27T18:07:41.585Z,25.73
2022-11-27T18:10:10.217Z,22.70
2022-11-27T18:12:37.800Z,25.27
2022-11-27T18:15:06.191Z,26.67
2022-11-27T18:17:35.187Z,23.50
2022-11-27T18:20:03.761Z,26.07
2022-11-27T18:22:31.436Z,22.47
2022-11-27T18:24:59.137Z,23.73
2022-11-27T18:27:26.856Z,24.00
2022-11-27T18:29:54.564Z,21.40
2022-11-27T18:32:22.924Z,26.97
2022-11-27T18:34:52.942Z,22.23
2022-11-27T18:37:20.558Z,23.53
2022-11-27T18:39:48.540Z,25.50
2022-11-27T18:42:16.181Z,25.57
2022-11-27T18:44:45.331Z,26.03
2022-11-27T18:47:13.763Z,23.23
2022-11-27T18:49:41.988Z,22.13
2022-11-27T18:52:11.418Z,32.17
2022-11-27T18:54:39.342Z,26.47
2022-11-27T18:57:07.292Z,27.50
2022-11-27T18:59:35.008Z,24.17
2022-11-27T19:02:02.874Z,24.53
2022-11-27T19:04:30.691Z,26.13
2022-11-27T19:06:58.274Z,26.90
2022-11-27T19:09:27.253Z,29.30
2022-11-27T19:11:54.849Z,28.93
2022-11-27T19:14:22.582Z,28.77
2022-11-27T19:16:50.844Z,25.27
2022-11-27T19:22:09.495Z,25.37
2022-11-27T19:24:38.498Z,27.43
2022-11-27T19:27:06.573Z,31.40
2022-11-27T19:29:34.248Z,31.23
2022-11-27T19:32:01.835Z,30.93
2022-11-27T19:34:29.685Z,29.63
2022-11-27T19:36:58.312Z,31.27
2022-11-27T19:39:26.875Z,26.93
2022-11-27T19:41:57.667Z,31.10
2022-11-27T19:44:25.561Z,26.70
2022-11-27T19:46:53.348Z,24.63
2022-11-27T19:49:21.386Z,25.20
2022-11-27T19:51:49.775Z,22.37
2022-11-27T19:54:19.255Z,21.37
2022-11-27T19:56:47.061Z,23.27
2022-11-27T19:59:16.153Z,26.93
2022-11-27T20:01:43.805Z,21.33
2022-11-27T20:04:12.089Z,23.20
2022-11-27T20:06:40.946Z,25.47
2022-11-27T20:09:09.766Z,23.27
2022-11-27T20:11:37.698Z,23.07
2022-11-27T20:14:06.168Z,20.27
2022-11-27T20:16:35.890Z,23.03
2022-11-27T20:19:05.391Z,22.07
2022-11-27T20:21:33.334Z,23.00
2022-11-27T20:24:02.503Z,20.73
2022-11-27T20:26:31.279Z,22.23
2022-11-27T20:28:59.303Z,21.63
2022-11-27T20:31:29.164Z,16.80
2022-11-27T20:34:01.541Z,17.47
2022-11-27T20:36:30.245Z,15.57
2022-11-27T20:38:59.901Z,17.43
2022-11-27T20:41:28.328Z,14.60
2022-11-27T20:43:57.853Z,18.60
2022-11-27T20:46:25.775Z,15.20
2022-11-27T20:48:54.590Z,17.60
2022-11-27T20:51:27.498Z,16.00
2022-11-27T20:53:55.710Z,14.93
2022-11-27T20:56:23.512Z,14.43
2022-11-27T20:58:51.107Z,14.33
2022-11-27T21:01:21.969Z,18.30
2022-11-27T21:03:52.501Z,16.90
2022-11-27T21:06:23.279Z,16.20
2022-11-27T21:08:51.368Z,15.30
2022-11-27T21:11:25.072Z,13.87
2022-11-27T21:13:53.188Z,16.77
2022-11-27T21:16:21.029Z,19.17
2022-11-27T21:18:48.660Z,13.03
2022-11-27T21:21:16.486Z,18.13
2022-11-27T21:23:45.879Z,15.00
2022-11-27T21:26:14.052Z,16.07
2022-11-27T21:28:42.720Z,14.13
2022-11-27T21:31:17.253Z,13.90
2022-11-27T21:33:46.849Z,16.67
2022-11-27T21:36:14.721Z,14.90
2022-11-27T21:38:42.621Z,15.57
2022-11-27T21:41:13.669Z,14.70
2022-11-27T21:43:41.517Z,18.33
2022-11-27T21:46:09.511Z,14.23
2022-11-27T21:48:37.264Z,13.10
2022-11-27T21:51:06.107Z,16.53
2022-11-27T21:53:34.774Z,18.50
2022-11-27T21:56:05.161Z,18.20
2022-11-27T21:58:34.743Z,19.80
2022-11-27T22:01:02.563Z,17.93
2022-11-27T22:03:30.318Z,15.93
2022-11-27T22:05:58.988Z,14.77
2022-11-27T22:08:26.686Z,12.43
2022-11-27T22:10:54.394Z,13.93
2022-11-27T22:13:22.018Z,10.60
2022-11-27T22:15:51.087Z,11.60
2022-11-27T22:18:18.696Z,11.50
2022-11-27T22:20:46.313Z,10.17
2022-11-27T22:23:14.016Z,10.67
2022-11-27T22:25:41.722Z,11.23
2022-11-27T22:28:09.518Z,10.20
2022-11-27T22:30:37.411Z,11.50
2022-11-27T22:33:06.475Z,10.57
2022-11-27T22:35:34.695Z,10.10
2022-11-27T22:38:02.802Z,11.10
2022-11-27T22:40:30.667Z,11.73
2022-11-27T22:42:58.325Z,11.77
2022-11-27T22:45:26.138Z,13.50
2022-11-27T22:47:54.464Z,11.70
2022-11-27T22:50:23.409Z,11.00
2022-11-27T22:52:54.558Z,12.63
2022-11-27T22:55:25.159Z,11.73
2022-11-27T22:57:52.786Z,11.70
2022-11-27T23:00:21.496Z,10.40
2022-11-27T23:02:49.310Z,11.27
2022-11-27T23:05:17.258Z,11.00
2022-11-27T23:07:46.487Z,12.17
2022-11-27T23:10:14.234Z,9.53
2022-11-27T23:12:42.041Z,10.10
2022-11-27T23:15:10.481Z,9.63
2022-11-27T23:17:38.191Z,10.13
2022-11-27T23:20:07.537Z,11.90
2022-11-27T23:22:35.463Z,11.97
2022-11-27T23:25:04.900Z,12.17
2022-11-27T23:27:32.530Z,12.80
2022-11-27T23:30:00.158Z,11.43
2022-11-27T23:32:27.825Z,14.80
2022-11-27T23:34:55.512Z,11.63
2022-11-27T23:37:23.141Z,13.77
2022-11-27T23:39:50.764Z,12.07
2022-11-27T23:42:19.922Z,13.33
2022-11-27T23:44:47.613Z,10.83
2022-11-27T23:47:15.334Z,10.00
2022-11-27T23:49:43.407Z,11.93
2022-11-27T23:52:16.848Z,11.83
2022-11-27T23:54:44.886Z,11.27
2022-11-27T23:57:12.542Z,9.73
2022-11-27T23:59:41.606Z,11.23
